Meteo Giornale » Osservazioni meteo Italia » Capo Mele

ore: 05:55 - Osservazioni Meteo Capo Mele
Lat. 43° 57' N Lon. 8° 10' E Alt. 220 metri s.l.m.

sereno Europe/Rome

10 °C

Sereno

Temp. 24 Ore

9 °C

15 °C

Nord

0 Km/h

Dew point 8 °C

Umidità 87 %

Visibilità  10 Km

Il sole sorge alle ore 07:12

Il sole tramonta alle ore 18:09

Data e Ora Cielo e Fenomeni T °C DP °C Um. % Pres. hPa Vis. km Vento km/h
Oggi h: 05:55 sereno Sereno 10 8 87 1026 10 N 0
Oggi h: 04:55 sereno Sereno 10 9 93 1026 10 N 3.7
Oggi h: 03:55 sereno Sereno 10 9 93 1026 10 N 3.7
Oggi h: 02:55 sereno Sereno 10 8 87 1026 10 N 5.5
Oggi h: 01:55 sereno Sereno 12 1 46 1026 10 N 3.7
Oggi h: 00:55 sereno Sereno 10 7 81 1026 10 N 0
Ieri h: 23:55 sereno Sereno 10 9 93 1026 10 N 5.5
Ieri h: 22:55 sereno Sereno 10 9 93 1026 10 N 3.7
Ieri h: 21:55 sereno Sereno 10 10 100 1026 10 N 0
Ieri h: 20:55 poco_nuvoloso Poco Nuvoloso 10 10 100 1026 10 N 3.7
Ieri h: 19:55 poco_nuvoloso Poco Nuvoloso 10 10 100 1025 10 N 3.7
Ieri h: 18:55 sereno Sereno 11 11 100 1025 10 N 14.8
Ieri h: 17:55 sereno Sereno 12 9 81 1024 10 N 14.8
Ieri h: 16:55 sereno Sereno 13 11 87 1023 10 S/SO 18.5
Ieri h: 15:55 sereno Sereno 13 11 87 1022 10 S/SO 22.2
Ieri h: 14:55 sereno Sereno 14 10 76 1023 10 S/SO 11.1
Ieri h: 13:55 sereno Sereno 15 11 76 1024 10 S/SO 9.3
Ieri h: 12:55 sereno Sereno 14 10 76 1025 10 N 3.7
Ieri h: 11:55 poco_nuvoloso Poco Nuvoloso 13 10 81 1025 10 S/SO 7.4
Ieri h: 10:55 sereno Sereno 13 10 81 1026 10 S/SO 7.4
Ieri h: 09:55 poco_nuvoloso Poco Nuvoloso 12 9 81 1026 10 N 5.5
Ieri h: 08:55 poco_nuvoloso Poco Nuvoloso 10 9 93 1026 10 N 5.5
Ieri h: 07:55 nuvoloso Nuvoloso 9 8 93 1026 10 N 0
Ieri h: 05:55 poco_nuvoloso Poco Nuvoloso 9 8 93 1026 10 N 0